createdAt,value
2018-05-16T10:46:27.770Z,44.20
2018-05-16T10:48:55.238Z,44.20
2018-05-16T10:51:22.685Z,43.80
2018-05-16T10:53:50.137Z,43.10
2018-05-16T10:56:17.583Z,42.40
2018-05-16T10:58:45.035Z,44.40
2018-05-16T11:01:12.696Z,43.20
2018-05-16T11:03:40.077Z,44.90
2018-05-16T11:06:07.613Z,44.90
2018-05-16T11:08:35.071Z,46.50
2018-05-16T11:11:02.528Z,47.50
2018-05-16T11:13:29.997Z,45.90
2018-05-16T11:15:57.566Z,47.60
2018-05-16T11:18:25.098Z,48.40
2018-05-16T11:20:52.656Z,47.60
2018-05-16T11:23:20.246Z,46.50
2018-05-16T11:25:48.467Z,44.90
2018-05-16T11:28:16.066Z,45.00
2018-05-16T11:30:43.533Z,42.30
2018-05-16T11:33:11.758Z,42.10
2018-05-16T11:35:39.214Z,42.00
2018-05-16T11:38:06.790Z,42.50
2018-05-16T11:40:35.387Z,45.50
2018-05-16T11:43:03.846Z,44.10
2018-05-16T11:45:31.281Z,43.30
2018-05-16T11:47:58.737Z,43.10
2018-05-16T11:50:26.206Z,42.90
2018-05-16T11:52:53.661Z,44.20
2018-05-16T11:55:21.106Z,44.30
2018-05-16T11:57:48.583Z,43.70
2018-05-16T12:00:16.035Z,44.30
2018-05-16T12:02:43.603Z,44.80
2018-05-16T12:05:11.818Z,44.30
2018-05-16T12:07:39.321Z,44.20
2018-05-16T12:10:06.787Z,44.90
2018-05-16T12:12:34.262Z,46.10
2018-05-16T12:15:02.515Z,48.10
2018-05-16T12:17:29.951Z,48.10
2018-05-16T12:19:57.440Z,49.40
2018-05-16T12:22:24.986Z,49.40
2018-05-16T12:24:52.438Z,48.70
2018-05-16T12:27:19.914Z,49.80
2018-05-16T12:29:47.468Z,48.80
2018-05-16T12:32:15.016Z,48.00
2018-05-16T12:34:42.574Z,47.70
2018-05-16T12:37:10.138Z,48.30
2018-05-16T12:39:37.685Z,46.90
2018-05-16T12:42:05.229Z,45.10
2018-05-16T12:44:32.708Z,47.20
2018-05-16T12:47:00.197Z,47.10
2018-05-16T12:49:27.672Z,47.60
2018-05-16T12:51:55.110Z,47.70
2018-05-16T12:54:22.644Z,47.80
2018-05-16T12:56:50.089Z,48.20
2018-05-16T12:59:17.554Z,47.90
2018-05-16T13:01:45.764Z,48.10
2018-05-16T13:04:13.226Z,48.10
2018-05-16T13:06:40.719Z,47.20
2018-05-16T13:09:08.179Z,47.20
2018-05-16T13:11:35.730Z,47.10
2018-05-16T13:14:03.274Z,47.30
2018-05-16T13:16:30.848Z,48.50
2018-05-16T13:18:58.331Z,48.00
2018-05-16T13:21:26.591Z,48.60
2018-05-16T13:23:53.994Z,48.70
2018-05-16T13:26:21.465Z,48.80
2018-05-16T13:28:48.933Z,49.30
2018-05-16T13:31:16.493Z,49.50
2018-05-16T13:33:43.951Z,49.40
2018-05-16T13:36:12.493Z,49.70
2018-05-16T13:38:39.886Z,50.80
2018-05-16T13:41:07.363Z,51.40
2018-05-16T13:43:34.839Z,51.00
2018-05-16T13:46:03.046Z,49.80
2018-05-16T13:48:30.517Z,49.80
2018-05-16T13:50:57.962Z,48.30
2018-05-16T13:53:26.543Z,49.30
2018-05-16T13:55:53.931Z,48.80
2018-05-16T13:58:21.535Z,49.00
2018-05-16T14:00:49.002Z,50.10
2018-05-16T14:03:16.485Z,50.40
2018-05-16T14:05:43.965Z,50.90
2018-05-16T14:08:12.195Z,48.70
2018-05-16T14:10:39.673Z,48.70
2018-05-16T14:13:08.046Z,47.10
2018-05-16T14:15:35.522Z,47.00
2018-05-16T14:18:03.078Z,47.50
2018-05-16T14:20:30.526Z,46.70
2018-05-16T14:22:58.079Z,47.50
2018-05-16T14:25:25.535Z,45.50
2018-05-16T14:27:52.995Z,42.90
2018-05-16T14:30:20.659Z,41.40
2018-05-16T14:32:48.915Z,41.20
2018-05-16T14:35:16.491Z,41.20
2018-05-16T14:37:43.945Z,40.20
2018-05-16T14:40:11.430Z,40.80
2018-05-16T14:42:39.772Z,41.80
2018-05-16T14:45:07.192Z,41.70
2018-05-16T14:47:34.679Z,42.10
2018-05-16T14:50:02.262Z,41.40
2018-05-16T14:52:29.803Z,41.80
2018-05-16T14:54:57.360Z,41.40
2018-05-16T14:57:24.839Z,42.10
2018-05-16T14:59:53.090Z,41.60
2018-05-16T15:02:20.564Z,41.50
2018-05-16T15:04:48.797Z,39.70
2018-05-16T15:07:16.281Z,39.80
2018-05-16T15:09:43.745Z,39.30
2018-05-16T15:12:11.973Z,41.50
2018-05-16T15:14:39.465Z,41.50
2018-05-16T15:17:07.031Z,42.00
2018-05-16T15:19:34.507Z,43.10
2018-05-16T15:22:02.721Z,43.30
2018-05-16T15:24:30.199Z,43.20
2018-05-16T15:26:57.642Z,43.90
2018-05-16T15:29:25.234Z,43.60
2018-05-16T15:31:52.711Z,43.70
2018-05-16T15:34:20.957Z,44.20
2018-05-16T15:36:48.491Z,44.20
2018-05-16T15:39:16.003Z,44.60
2018-05-16T15:41:43.481Z,44.80
2018-05-16T15:44:10.999Z,45.10
2018-05-16T15:46:39.316Z,45.90
2018-05-16T15:49:06.734Z,45.80
2018-05-16T15:51:34.974Z,47.00
2018-05-16T15:54:02.427Z,46.90
2018-05-16T15:56:29.969Z,48.50
2018-05-16T15:58:57.432Z,47.70
2018-05-16T16:01:25.019Z,49.10
2018-05-16T16:03:52.477Z,46.80
2018-05-16T16:06:19.944Z,47.50
2018-05-16T16:08:48.181Z,46.80
2018-05-16T16:11:15.737Z,46.70
2018-05-16T16:13:43.297Z,49.90
2018-05-16T16:16:10.766Z,50.80
2018-05-16T16:18:38.314Z,51.70
2018-05-16T16:21:05.874Z,51.90
2018-05-16T16:23:33.431Z,52.00
2018-05-16T16:26:00.997Z,52.80
2018-05-16T16:28:28.452Z,53.50
2018-05-16T16:30:56.027Z,53.50
2018-05-16T16:33:23.482Z,53.10
2018-05-16T16:35:51.721Z,52.30
2018-05-16T16:38:19.293Z,52.30
2018-05-16T16:40:46.773Z,51.80
2018-05-16T16:43:15.006Z,52.00
2018-05-16T16:45:42.568Z,51.90
2018-05-16T16:48:10.130Z,53.40
2018-05-16T16:50:37.599Z,51.90
2018-05-16T16:53:05.157Z,52.80
2018-05-16T16:55:32.611Z,53.00
2018-05-16T16:58:00.291Z,53.70
2018-05-16T17:00:27.745Z,53.60
2018-05-16T17:02:56.094Z,54.20
2018-05-16T17:05:23.555Z,54.10
2018-05-16T17:07:51.010Z,54.20
2018-05-16T17:10:19.249Z,54.10
2018-05-16T17:12:46.769Z,54.30
2018-05-16T17:15:15.018Z,54.90
2018-05-16T17:17:42.577Z,54.80
2018-05-16T17:20:10.032Z,55.20
2018-05-16T17:22:37.481Z,55.20
2018-05-16T17:25:04.948Z,55.60
2018-05-16T17:27:32.424Z,55.20
2018-05-16T17:30:00.659Z,56.00
2018-05-16T17:32:28.218Z,56.00
2018-05-16T17:34:55.708Z,56.50
2018-05-16T17:37:23.231Z,56.20
2018-05-16T17:39:50.690Z,56.20
2018-05-16T17:42:18.146Z,56.70
2018-05-16T17:44:45.689Z,56.40
2018-05-16T17:47:13.159Z,55.60
2018-05-16T17:49:45.413Z,55.90
2018-05-16T17:52:14.944Z,56.50
2018-05-16T17:54:43.197Z,55.70
2018-05-16T17:57:10.668Z,55.60
2018-05-16T17:59:38.128Z,55.30
2018-05-16T18:02:05.563Z,55.10
2018-05-16T18:04:33.098Z,55.20
2018-05-16T18:07:00.681Z,55.50
2018-05-16T18:09:28.162Z,55.20
2018-05-16T18:11:56.577Z,55.60
2018-05-16T18:17:42.397Z,55.80
2018-05-16T18:20:09.858Z,55.70
2018-05-16T18:22:37.333Z,55.80
2018-05-16T18:25:04.802Z,56.10
2018-05-16T18:27:33.050Z,55.80
2018-05-16T18:30:00.509Z,55.70
2018-05-16T18:32:28.069Z,55.90
2018-05-16T18:34:55.534Z,56.00
2018-05-16T18:37:23.090Z,56.50
2018-05-16T18:39:50.687Z,56.60
2018-05-16T18:42:18.143Z,56.90
2018-05-16T18:44:46.838Z,57.40
2018-05-16T18:47:15.447Z,57.70
2018-05-16T18:49:42.913Z,57.70
2018-05-16T18:52:10.480Z,57.80
2018-05-16T18:54:37.952Z,58.00
2018-05-16T18:57:05.410Z,58.80
2018-05-16T18:59:32.869Z,58.80
2018-05-16T19:02:00.454Z,58.40
2018-05-16T19:04:28.676Z,58.90
2018-05-16T19:06:56.154Z,58.90
2018-05-16T19:09:24.641Z,58.90
2018-05-16T19:11:52.083Z,58.80
2018-05-16T19:14:19.575Z,58.60
2018-05-16T19:16:47.777Z,59.10
2018-05-16T19:19:15.249Z,59.10
2018-05-16T19:21:42.824Z,59.60
2018-05-16T19:24:10.294Z,59.40
2018-05-16T19:26:37.852Z,60.00
2018-05-16T19:29:05.314Z,60.50
2018-05-16T19:31:33.570Z,61.30
2018-05-16T19:34:01.050Z,61.30
2018-05-16T19:36:28.510Z,61.70
2018-05-16T19:38:56.757Z,63.20
2018-05-16T19:41:24.240Z,63.20
2018-05-16T19:43:52.448Z,64.40
2018-05-16T19:46:21.947Z,64.30
2018-05-16T19:48:49.333Z,64.70
